Time;durP1;ratioP1;P1;durP2;ratioP2;P2;SDS_P1;SDS_P2;PMS_P1;PMS_P2;Temp;Humidity;BMP_temperature;BMP_pressure;BME280_temperature;BME280_humidity;BME280_pressure;Samples;Min_cycle;Max_cycle;Signal;HPM_P1;HPM_P2
2023/04/26 00:00:28;;;;;;;2.10;1.90;;;6.40;61.30;;;;;;929207;152;27367;-77
2023/04/26 00:02:54;;;;;;;2.93;1.87;;;6.30;61.30;;;;;;942793;151;27783;-78
2023/04/26 00:05:20;;;;;;;1.97;1.67;;;6.30;61.50;;;;;;926787;151;27353;-77
2023/04/26 00:07:49;;;;;;;3.20;1.63;;;6.30;61.50;;;;;;942024;151;27864;-77
2023/04/26 00:10:13;;;;;;;2.57;2.07;;;6.20;61.70;;;;;;941513;151;27366;-72
2023/04/26 00:12:40;;;;;;;2.47;1.80;;;6.20;61.60;;;;;;928467;153;27376;-72
2023/04/26 00:15:06;;;;;;;1.73;1.60;;;6.10;61.60;;;;;;930157;154;27437;-71
2023/04/26 00:17:33;;;;;;;1.87;1.70;;;6.10;61.60;;;;;;922163;154;27384;-72
2023/04/26 00:20:00;;;;;;;2.23;2.13;;;6.00;61.70;;;;;;925437;152;27431;-71
2023/04/26 00:22:26;;;;;;;1.90;1.80;;;6.00;61.70;;;;;;927727;153;27294;-72
2023/04/26 00:24:53;;;;;;;1.67;1.57;;;5.90;61.80;;;;;;930150;151;27405;-72
2023/04/26 00:27:19;;;;;;;3.23;2.00;;;5.90;62.00;;;;;;928151;151;27310;-72
2023/04/26 00:29:46;;;;;;;2.40;1.80;;;5.80;62.10;;;;;;941743;149;27289;-73
2023/04/26 00:32:12;;;;;;;4.20;2.23;;;5.70;62.20;;;;;;941375;149;27708;-73
2023/04/26 00:34:39;;;;;;;3.10;2.07;;;5.70;62.40;;;;;;941440;149;27354;-73
2023/04/26 00:37:06;;;;;;;1.60;1.50;;;5.60;62.60;;;;;;928004;153;27342;-73
2023/04/26 00:39:32;;;;;;;2.67;1.87;;;5.60;62.80;;;;;;940822;151;27402;-73
2023/04/26 00:41:59;;;;;;;2.07;1.70;;;5.50;62.80;;;;;;931447;151;27330;-73
2023/04/26 00:44:25;;;;;;;2.03;1.70;;;5.50;63.00;;;;;;927603;152;27345;-73
2023/04/26 00:46:52;;;;;;;1.87;1.70;;;5.40;63.10;;;;;;927440;152;27389;-73
2023/04/26 00:49:18;;;;;;;1.90;1.77;;;5.40;63.20;;;;;;929296;153;27769;-73
2023/04/26 00:51:45;;;;;;;2.73;2.17;;;5.30;63.20;;;;;;931400;154;27412;-73
2023/04/26 00:54:12;;;;;;;2.00;1.90;;;5.30;63.30;;;;;;931311;153;27394;-73
2023/04/26 00:56:38;;;;;;;2.77;1.70;;;5.30;63.60;;;;;;931465;153;27463;-73
2023/04/26 00:59:05;;;;;;;3.03;1.73;;;5.20;63.60;;;;;;927714;151;27444;-73
2023/04/26 01:01:32;;;;;;;2.60;2.07;;;5.20;63.80;;;;;;942761;151;27313;-73
2023/04/26 01:03:58;;;;;;;3.73;2.20;;;5.10;63.90;;;;;;944879;151;27898;-73
2023/04/26 01:06:24;;;;;;;1.83;1.70;;;5.10;64.00;;;;;;945209;151;27356;-73
2023/04/26 01:08:51;;;;;;;2.83;2.20;;;5.00;64.00;;;;;;929494;154;27532;-73
2023/04/26 01:11:18;;;;;;;2.37;2.17;;;5.00;64.20;;;;;;930072;154;27407;-73
2023/04/26 01:13:44;;;;;;;2.97;1.97;;;4.90;64.40;;;;;;929680;154;27294;-73
2023/04/26 01:16:11;;;;;;;2.00;1.90;;;4.90;64.40;;;;;;930029;152;27365;-73
2023/04/26 01:18:37;;;;;;;2.50;1.73;;;4.80;64.60;;;;;;944593;151;27461;-73
2023/04/26 01:21:04;;;;;;;1.60;1.50;;;4.80;64.70;;;;;;926773;154;27432;-73
2023/04/26 01:23:30;;;;;;;3.27;2.00;;;4.70;64.70;;;;;;944986;149;27309;-73
2023/04/26 01:25:57;;;;;;;1.67;1.57;;;4.70;64.90;;;;;;942323;148;27368;-73
2023/04/26 01:28:24;;;;;;;2.27;2.07;;;4.60;64.90;;;;;;939205;150;27303;-73
2023/04/26 01:30:50;;;;;;;2.97;2.03;;;4.60;65.00;;;;;;939879;151;27443;-73
2023/04/26 01:33:17;;;;;;;2.10;2.00;;;4.50;65.10;;;;;;940832;150;27446;-73
2023/04/26 01:35:43;;;;;;;5.10;1.80;;;4.50;65.30;;;;;;922348;155;27433;-73
2023/04/26 01:38:10;;;;;;;2.03;1.83;;;4.40;65.40;;;;;;942413;151;27414;-73
2023/04/26 01:40:37;;;;;;;1.67;1.57;;;4.40;65.50;;;;;;941484;151;27457;-73
2023/04/26 01:43:03;;;;;;;2.37;2.00;;;4.40;65.60;;;;;;919020;153;27377;-72
2023/04/26 01:45:30;;;;;;;2.93;1.70;;;4.30;65.80;;;;;;940989;152;27329;-73
2023/04/26 01:47:57;;;;;;;1.93;1.70;;;4.30;65.90;;;;;;941525;152;27330;-72
2023/04/26 01:50:23;;;;;;;1.37;1.33;;;4.20;66.00;;;;;;941835;151;27325;-73
2023/04/26 01:52:50;;;;;;;3.30;1.90;;;4.20;66.20;;;;;;940669;150;27451;-73
2023/04/26 01:55:16;;;;;;;1.83;1.73;;;4.20;66.20;;;;;;929966;153;27329;-75
2023/04/26 01:57:43;;;;;;;1.80;1.70;;;4.20;66.40;;;;;;931571;151;27281;-73
2023/04/26 02:00:10;;;;;;;3.57;1.90;;;4.10;66.50;;;;;;940491;151;27317;-73
2023/04/26 02:02:36;;;;;;;1.83;1.73;;;4.10;66.60;;;;;;941673;151;27454;-73
2023/04/26 02:05:02;;;;;;;1.80;1.70;;;4.10;66.60;;;;;;930903;151;27364;-73
2023/04/26 02:07:29;;;;;;;1.73;1.63;;;4.10;66.60;;;;;;940024;151;27374;-73
2023/04/26 02:09:56;;;;;;;1.57;1.47;;;4.00;66.60;;;;;;930474;151;27379;-77
2023/04/26 02:12:22;;;;;;;2.00;1.80;;;4.00;66.70;;;;;;930097;152;27384;-76
2023/04/26 02:14:49;;;;;;;1.60;1.50;;;4.00;66.80;;;;;;929460;154;27373;-75
2023/04/26 02:17:16;;;;;;;1.67;1.57;;;3.90;66.80;;;;;;927199;154;27276;-75
2023/04/26 02:19:42;;;;;;;2.13;1.50;;;3.90;66.90;;;;;;927436;153;27672;-76
2023/04/26 02:22:09;;;;;;;3.00;1.47;;;3.80;67.00;;;;;;928668;151;27346;-76
2023/04/26 02:24:35;;;;;;;2.47;2.23;;;3.80;67.00;;;;;;928026;151;27349;-76
2023/04/26 02:27:03;;;;;;;1.70;1.60;;;3.80;67.00;;;;;;942272;148;27358;-76
2023/04/26 02:29:28;;;;;;;4.23;2.00;;;3.70;67.10;;;;;;928643;149;27699;-76
2023/04/26 02:31:55;;;;;;;1.67;1.57;;;3.70;67.10;;;;;;929241;149;27446;-78
2023/04/26 02:34:21;;;;;;;1.70;1.60;;;3.70;67.30;;;;;;929684;149;27749;-78
2023/04/26 02:36:48;;;;;;;1.77;1.67;;;3.60;67.30;;;;;;930608;149;27377;-78
2023/04/26 02:39:15;;;;;;;1.87;1.77;;;3.60;67.40;;;;;;937382;148;27283;-78
2023/04/26 02:41:41;;;;;;;2.60;1.80;;;3.60;67.50;;;;;;936707;148;27448;-79
2023/04/26 02:44:08;;;;;;;3.07;1.83;;;3.50;67.50;;;;;;937579;148;27337;-78
2023/04/26 02:46:34;;;;;;;1.80;1.70;;;3.50;67.60;;;;;;937531;148;27350;-77
2023/04/26 02:49:01;;;;;;;2.60;2.07;;;3.50;67.60;;;;;;937017;148;27361;-77
2023/04/26 02:51:28;;;;;;;1.83;1.73;;;3.40;67.80;;;;;;929390;149;27307;-77
2023/04/26 02:53:54;;;;;;;1.83;1.70;;;3.40;67.80;;;;;;937585;148;27303;-77
2023/04/26 02:56:21;;;;;;;2.57;1.80;;;3.40;67.90;;;;;;937336;148;27299;-77
2023/04/26 02:58:47;;;;;;;1.77;1.67;;;3.40;68.00;;;;;;929530;149;27358;-76
2023/04/26 03:01:14;;;;;;;2.80;2.60;;;3.40;68.10;;;;;;937621;148;27322;-76
2023/04/26 03:03:41;;;;;;;2.13;1.97;;;3.30;68.10;;;;;;925987;150;27374;-77
2023/04/26 03:06:07;;;;;;;2.80;1.87;;;3.30;68.10;;;;;;937062;148;27315;-77
2023/04/26 03:08:35;;;;;;;4.00;1.90;;;3.30;68.30;;;;;;936411;148;27358;-76
2023/04/26 03:11:00;;;;;;;3.50;2.27;;;3.20;68.30;;;;;;937313;148;27427;-77
2023/04/26 03:13:27;;;;;;;2.47;2.10;;;3.20;68.30;;;;;;928988;148;27394;-77
2023/04/26 03:15:53;;;;;;;2.20;1.93;;;3.20;68.60;;;;;;929244;149;27415;-77
2023/04/26 03:18:20;;;;;;;3.47;2.17;;;3.20;68.70;;;;;;937377;148;27353;-79
2023/04/26 03:20:47;;;;;;;2.40;1.83;;;3.20;68.80;;;;;;926773;150;27345;-77
2023/04/26 03:23:13;;;;;;;2.83;2.40;;;3.10;68.90;;;;;;929449;149;27293;-77
2023/04/26 03:25:40;;;;;;;2.30;2.00;;;3.10;68.90;;;;;;928645;149;27499;-77
2023/04/26 03:28:06;;;;;;;3.13;2.30;;;3.10;69.00;;;;;;937411;148;27451;-77
2023/04/26 03:30:33;;;;;;;2.33;2.13;;;3.10;69.10;;;;;;926660;150;27438;-78
2023/04/26 03:32:59;;;;;;;2.43;2.23;;;3.10;69.20;;;;;;922600;150;27460;-77
2023/04/26 03:35:26;;;;;;;2.07;1.83;;;3.10;69.20;;;;;;911510;155;27329;-77
2023/04/26 03:37:53;;;;;;;3.67;1.90;;;3.00;69.10;;;;;;928773;149;27337;-77
2023/04/26 03:40:19;;;;;;;2.47;1.87;;;3.00;69.10;;;;;;928918;149;27428;-78
2023/04/26 03:42:46;;;;;;;2.20;2.00;;;3.00;69.10;;;;;;921791;150;27362;-77
2023/04/26 03:45:12;;;;;;;1.93;1.67;;;3.00;69.30;;;;;;928688;149;27442;-77
2023/04/26 03:47:39;;;;;;;2.23;2.00;;;2.90;69.20;;;;;;936565;148;27326;-78
2023/04/26 03:50:06;;;;;;;1.83;1.73;;;2.90;69.40;;;;;;937409;148;27329;-77
2023/04/26 03:52:32;;;;;;;3.33;2.03;;;2.80;69.40;;;;;;937451;148;27372;-77
2023/04/26 03:54:59;;;;;;;1.93;1.63;;;2.90;69.50;;;;;;929269;149;27817;-77
2023/04/26 03:57:25;;;;;;;2.53;1.90;;;2.80;69.60;;;;;;928568;149;27411;-77
2023/04/26 03:59:52;;;;;;;4.47;2.20;;;2.80;69.60;;;;;;929752;149;27269;-77
2023/04/26 04:02:19;;;;;;;1.90;1.80;;;2.80;69.70;;;;;;929323;149;27457;-77
2023/04/26 04:04:45;;;;;;;1.97;1.87;;;2.80;69.80;;;;;;929298;149;27471;-77
2023/04/26 04:07:12;;;;;;;3.13;1.90;;;2.70;69.80;;;;;;937223;148;27370;-77
2023/04/26 04:09:38;;;;;;;2.53;1.90;;;2.70;69.80;;;;;;921530;150;27899;-77
2023/04/26 04:12:05;;;;;;;2.30;1.90;;;2.70;69.90;;;;;;941677;147;27373;-77
2023/04/26 04:14:32;;;;;;;3.33;1.97;;;2.70;70.00;;;;;;925106;150;27358;-76
2023/04/26 04:16:58;;;;;;;2.93;1.90;;;2.60;70.10;;;;;;930189;149;27466;-79
2023/04/26 04:19:25;;;;;;;5.47;2.23;;;2.60;70.20;;;;;;937549;148;27252;-79
2023/04/26 04:21:51;;;;;;;3.23;2.23;;;2.60;70.30;;;;;;925359;150;27379;-78
2023/04/26 04:24:19;;;;;;;2.77;1.90;;;2.60;70.50;;;;;;929918;149;27326;-78
2023/04/26 04:26:45;;;;;;;2.57;2.27;;;2.60;70.50;;;;;;928845;149;27492;-78
2023/04/26 04:29:11;;;;;;;3.60;1.87;;;2.60;70.60;;;;;;929617;149;27406;-78
2023/04/26 04:31:38;;;;;;;2.67;2.47;;;2.60;70.80;;;;;;911251;153;27438;-78
2023/04/26 04:34:04;;;;;;;2.30;2.10;;;2.70;71.00;;;;;;913518;154;27431;-78
2023/04/26 04:36:31;;;;;;;3.60;2.30;;;2.70;71.10;;;;;;910123;153;27393;-78
2023/04/26 04:38:57;;;;;;;3.47;3.13;;;2.70;71.30;;;;;;910601;153;27384;-78
2023/04/26 04:41:24;;;;;;;4.43;2.23;;;2.80;70.70;;;;;;911181;153;27476;-78
2023/04/26 04:43:52;;;;;;;2.70;2.50;;;2.80;71.60;;;;;;891347;155;27364;-78
2023/04/26 04:46:17;;;;;;;2.83;2.63;;;2.90;71.80;;;;;;912647;154;27403;-79
2023/04/26 04:48:44;;;;;;;2.73;2.53;;;3.00;72.00;;;;;;913106;154;27871;-78
2023/04/26 04:51:11;;;;;;;4.33;2.60;;;3.10;72.30;;;;;;912762;154;27499;-78
2023/04/26 04:53:37;;;;;;;2.97;2.20;;;3.30;72.80;;;;;;913465;154;27336;-78
2023/04/26 04:56:03;;;;;;;2.50;2.30;;;3.40;73.10;;;;;;911059;154;27444;-78
2023/04/26 04:58:30;;;;;;;5.00;2.63;;;3.70;73.70;;;;;;912993;154;27409;-78
2023/04/26 05:00:59;;;;;;;5.10;3.07;;;4.00;74.30;;;;;;913557;154;27389;-78
2023/04/26 05:03:23;;;;;;;4.90;3.20;;;4.30;74.90;;;;;;909718;154;27402;-78
2023/04/26 05:05:50;;;;;;;2.90;2.43;;;4.70;75.30;;;;;;906680;157;27318;-77
2023/04/26 05:08:16;;;;;;;3.13;2.83;;;5.20;75.50;;;;;;907510;155;27552;-77
2023/04/26 05:10:43;;;;;;;3.77;2.73;;;5.80;74.80;;;;;;906830;157;27495;-77
2023/04/26 05:13:10;;;;;;;4.43;2.83;;;6.40;75.30;;;;;;908681;155;27404;-77
2023/04/26 05:15:36;;;;;;;3.43;2.47;;;7.00;75.00;;;;;;907196;157;27339;-79
2023/04/26 05:18:03;;;;;;;4.73;2.47;;;7.70;74.60;;;;;;930887;149;27314;-78
2023/04/26 05:20:30;;;;;;;3.17;2.47;;;8.30;74.10;;;;;;910954;153;27368;-78
2023/04/26 05:22:56;;;;;;;2.70;2.40;;;9.00;73.30;;;;;;913086;154;27496;-79
2023/04/26 05:25:22;;;;;;;4.03;2.53;;;9.70;72.70;;;;;;912979;154;27497;-78
2023/04/26 05:27:49;;;;;;;5.17;2.87;;;10.40;72.10;;;;;;912701;154;27472;-78
2023/04/26 05:30:16;;;;;;;2.70;2.50;;;11.10;71.20;;;;;;918109;151;27386;-77
2023/04/26 05:32:42;;;;;;;4.20;2.47;;;11.80;70.00;;;;;;938393;149;27366;-78
2023/04/26 05:35:09;;;;;;;2.43;2.20;;;12.40;68.80;;;;;;938379;150;27342;-78
2023/04/26 05:37:35;;;;;;;3.40;2.30;;;13.10;67.90;;;;;;938991;149;27430;-79
2023/04/26 05:40:03;;;;;;;3.15;2.67;;;13.70;67.20;;;;;;924611;152;27388;-78
2023/04/26 05:42:29;;;;;;;2.47;2.20;;;14.30;66.00;;;;;;922773;155;27492;-78
2023/04/26 05:44:58;;;;;;;3.87;2.75;;;14.90;64.80;;;;;;923063;155;27762;-78
2023/04/26 05:47:25;;;;;;;5.30;2.45;;;15.50;64.00;;;;;;919182;155;27341;-78
2023/04/26 05:49:51;;;;;;;3.67;2.45;;;16.10;63.50;;;;;;938492;151;27364;-77
2023/04/26 05:52:18;;;;;;;4.45;2.10;;;16.70;62.10;;;;;;938148;152;27840;-75
2023/04/26 05:54:44;;;;;;;2.65;2.12;;;17.30;60.70;;;;;;938465;152;27441;-78
2023/04/26 05:57:11;;;;;;;4.12;2.65;;;17.70;59.60;;;;;;938374;152;27399;-78
2023/04/26 05:59:37;;;;;;;4.40;2.20;;;18.20;59.00;;;;;;924471;154;27380;-78
2023/04/26 06:02:04;;;;;;;3.25;2.37;;;18.70;58.50;;;;;;938015;152;27371;-78
2023/04/26 06:04:31;;;;;;;3.00;2.40;;;19.10;58.50;;;;;;920398;152;27458;-78
2023/04/26 06:06:57;;;;;;;3.42;2.67;;;19.60;57.30;;;;;;924258;154;27450;-80
2023/04/26 06:09:25;;;;;;;4.60;2.70;;;20.10;56.70;;;;;;924207;154;27456;-77
2023/04/26 06:11:50;;;;;;;3.92;2.70;;;20.60;56.10;;;;;;924362;154;27331;-77
2023/04/26 06:14:17;;;;;;;4.67;2.40;;;21.00;55.30;;;;;;937459;152;27343;-80
2023/04/26 06:16:43;;;;;;;2.70;2.40;;;21.40;54.60;;;;;;938912;149;27235;-77
2023/04/26 06:19:10;;;;;;;2.58;2.37;;;21.90;54.00;;;;;;938736;149;27323;-76
2023/04/26 06:21:37;;;;;;;4.92;3.67;;;22.30;53.50;;;;;;936290;152;27441;-77
2023/04/26 06:24:03;;;;;;;4.72;2.98;;;22.70;53.00;;;;;;936181;153;27367;-78
2023/04/26 06:26:31;;;;;;;2.77;2.58;;;23.10;52.50;;;;;;935777;151;27351;-76
2023/04/26 06:28:56;;;;;;;4.33;2.55;;;23.50;52.00;;;;;;937151;150;27313;-77
2023/04/26 06:31:23;;;;;;;2.92;2.52;;;24.00;51.50;;;;;;925059;151;27551;-77
2023/04/26 06:33:50;;;;;;;3.10;2.75;;;24.50;50.80;;;;;;925873;151;27393;-77
2023/04/26 06:36:16;;;;;;;3.70;2.50;;;24.90;50.10;;;;;;936227;152;27354;-78
2023/04/26 06:38:43;;;;;;;4.25;3.17;;;25.30;49.60;;;;;;940340;149;27358;-77
2023/04/26 06:41:09;;;;;;;3.33;2.80;;;25.80;49.20;;;;;;922901;155;27337;-76
2023/04/26 06:43:36;;;;;;;2.77;2.35;;;26.20;48.70;;;;;;924712;153;27388;-76
2023/04/26 06:46:03;;;;;;;3.83;2.50;;;26.70;48.10;;;;;;938673;152;27296;-77
2023/04/26 06:48:29;;;;;;;3.40;2.30;;;27.10;47.40;;;;;;938544;152;27440;-77
2023/04/26 06:50:56;;;;;;;3.00;2.62;;;27.50;46.80;;;;;;924566;154;27331;-77
2023/04/26 06:53:22;;;;;;;4.10;2.85;;;27.90;46.40;;;;;;937744;152;27461;-77
2023/04/26 06:55:49;;;;;;;3.60;2.25;;;28.30;45.70;;;;;;929619;152;27345;-77
2023/04/26 06:58:15;;;;;;;2.90;2.42;;;28.70;45.30;;;;;;923988;153;27439;-78
2023/04/26 07:00:42;;;;;;;4.40;2.70;;;29.00;44.50;;;;;;939403;149;27402;-78
2023/04/26 07:03:09;;;;;;;2.92;2.47;;;29.30;43.60;;;;;;938798;149;27252;-77
2023/04/26 07:05:35;;;;;;;2.55;2.27;;;29.50;42.80;;;;;;937774;152;27397;-78
2023/04/26 07:08:02;;;;;;;3.50;2.60;;;29.70;42.30;;;;;;914740;154;27377;-78
2023/04/26 07:10:28;;;;;;;3.35;2.60;;;29.80;41.80;;;;;;920570;153;26313;-78
2023/04/26 07:12:55;;;;;;;6.22;3.02;;;29.90;41.60;;;;;;927489;153;27311;-78
2023/04/26 07:15:22;;;;;;;3.98;2.62;;;30.10;41.60;;;;;;927820;153;27408;-78
2023/04/26 07:17:48;;;;;;;3.00;2.00;;;30.20;41.30;;;;;;927736;153;27331;-78
2023/04/26 07:20:18;;;;;;;2.98;2.00;;;30.40;41.00;;;;;;937943;152;27338;-78
2023/04/26 07:22:41;;;;;;;2.95;2.15;;;30.60;40.50;;;;;;937846;152;27370;-78
2023/04/26 07:25:08;;;;;;;3.62;2.08;;;30.80;40.30;;;;;;941365;152;27302;-78
2023/04/26 07:27:35;;;;;;;3.00;2.47;;;31.00;40.00;;;;;;923719;152;27333;-79
2023/04/26 07:30:01;;;;;;;2.50;1.85;;;31.20;39.70;;;;;;924294;153;27347;-78
2023/04/26 07:32:28;;;;;;;2.40;1.72;;;31.40;39.00;;;;;;942847;148;28264;-77
2023/04/26 07:34:54;;;;;;;2.52;1.87;;;31.40;38.50;;;;;;944179;148;27306;-77
2023/04/26 07:37:21;;;;;;;3.45;1.95;;;31.50;38.10;;;;;;946819;148;27363;-78
2023/04/26 07:39:48;;;;;;;2.25;1.72;;;31.60;37.90;;;;;;946689;148;27377;-77
2023/04/26 07:42:14;;;;;;;2.27;1.57;;;31.60;37.20;;;;;;944113;149;27379;-78
2023/04/26 07:44:41;;;;;;;3.98;1.85;;;31.70;36.40;;;;;;946811;149;27365;-77
2023/04/26 07:47:13;;;;;;;2.47;1.80;;;31.70;36.90;;;;;;936887;150;27320;-78
2023/04/26 07:49:40;;;;;;;1.82;1.60;;;31.80;36.80;;;;;;936654;150;27304;-78
2023/04/26 07:52:07;;;;;;;2.10;1.77;;;31.80;36.60;;;;;;937370;150;27324;-78
2023/04/26 07:54:33;;;;;;;1.72;1.47;;;31.90;36.60;;;;;;938551;150;27367;-77
2023/04/26 07:57:00;;;;;;;3.42;2.17;;;32.00;36.40;;;;;;943601;147;27328;-78
2023/04/26 07:59:26;;;;;;;2.30;2.10;;;32.20;36.30;;;;;;942377;149;27342;-79
2023/04/26 08:01:53;;;;;;;4.20;1.90;;;32.40;36.00;;;;;;940653;149;27323;-79
2023/04/26 08:04:20;;;;;;;2.20;1.80;;;32.60;35.40;;;;;;951249;148;27345;-79
2023/04/26 08:06:47;;;;;;;3.40;1.70;;;32.60;34.80;;;;;;950292;148;27352;-78
2023/04/26 08:09:13;;;;;;;2.58;2.02;;;32.50;34.60;;;;;;954020;147;27392;-80
2023/04/26 08:11:40;;;;;;;4.12;2.20;;;32.50;34.70;;;;;;946850;147;27285;-79
2023/04/26 08:14:06;;;;;;;2.67;1.98;;;32.50;34.40;;;;;;940666;148;27283;-78
2023/04/26 08:16:32;;;;;;;3.05;2.08;;;32.40;33.50;;;;;;941650;148;27333;-78
2023/04/26 08:19:01;;;;;;;7.10;2.30;;;32.50;34.30;;;;;;929143;150;27346;-78
2023/04/26 08:21:26;;;;;;;3.72;1.90;;;32.50;34.30;;;;;;922953;152;27345;-79
2023/04/26 08:23:52;;;;;;;3.00;2.08;;;32.80;34.40;;;;;;925117;153;27326;-79
2023/04/26 08:26:19;;;;;;;2.12;1.80;;;33.00;34.00;;;;;;924855;150;26194;-79
2023/04/26 08:28:45;;;;;;;3.35;1.92;;;33.10;33.70;;;;;;926433;150;27462;-79
2023/04/26 08:31:12;;;;;;;3.72;1.85;;;33.30;33.30;;;;;;943589;147;26215;-80
2023/04/26 08:33:39;;;;;;;2.85;1.80;;;33.40;33.10;;;;;;949504;147;27305;-80
2023/04/26 08:36:05;;;;;;;2.65;1.82;;;33.40;32.60;;;;;;944744;149;27356;-80
2023/04/26 08:38:32;;;;;;;1.98;1.50;;;33.30;31.70;;;;;;942315;149;27364;-79
2023/04/26 08:41:02;;;;;;;3.20;1.87;;;33.10;31.40;;;;;;941788;149;27459;-79
2023/04/26 08:43:26;;;;;;;3.80;1.82;;;32.90;31.50;;;;;;939749;149;27810;-81
2023/04/26 08:45:52;;;;;;;2.40;1.77;;;32.80;31.50;;;;;;942134;148;27311;-79
2023/04/26 08:48:18;;;;;;;2.08;1.45;;;32.80;31.60;;;;;;943710;148;27323;-79
2023/04/26 08:50:45;;;;;;;2.90;2.05;;;32.60;31.40;;;;;;946854;147;27366;-80
2023/04/26 08:53:15;;;;;;;2.15;1.60;;;32.40;30.70;;;;;;926188;150;27309;-78
2023/04/26 08:55:41;;;;;;;3.08;1.57;;;31.90;30.00;;;;;;936162;150;27330;-78
2023/04/26 08:58:07;;;;;;;3.30;1.65;;;31.40;29.60;;;;;;938307;150;27348;-78
2023/04/26 09:00:34;;;;;;;3.27;2.02;;;30.80;30.10;;;;;;937892;150;27367;-78
2023/04/26 09:03:00;;;;;;;2.12;1.72;;;30.40;30.40;;;;;;936990;150;27311;-79
2023/04/26 09:05:27;;;;;;;1.80;1.62;;;30.10;31.20;;;;;;942516;146;27325;-79
2023/04/26 09:07:56;;;;;;;3.85;1.70;;;29.80;31.50;;;;;;942266;148;27383;-79
2023/04/26 09:10:23;;;;;;;1.77;1.42;;;29.70;31.40;;;;;;925440;150;27409;-80
2023/04/26 09:12:52;;;;;;;2.25;1.50;;;29.40;30.90;;;;;;943041;148;27384;-79
2023/04/26 09:15:19;;;;;;;4.50;2.10;;;29.00;30.30;;;;;;943272;148;27400;-79
2023/04/26 09:17:45;;;;;;;2.50;1.47;;;28.40;29.90;;;;;;947258;147;27488;-78
2023/04/26 09:20:24;;;;;;;4.60;1.75;;;27.70;29.80;;;;;;948301;147;27344;-79
2023/04/26 09:22:50;;;;;;;2.33;1.70;;;26.90;30.00;;;;;;937516;150;27308;-78
2023/04/26 09:25:17;;;;;;;1.98;1.20;;;26.10;30.50;;;;;;938413;150;27344;-78
2023/04/26 09:27:44;;;;;;;1.72;1.35;;;25.50;30.90;;;;;;937911;150;27292;-78
2023/04/26 09:30:14;;;;;;;2.02;1.20;;;25.10;31.50;;;;;;944931;148;27438;-78
2023/04/26 09:32:57;;;;;;;1.55;1.40;;;24.70;32.00;;;;;;943261;148;27345;-78
2023/04/26 09:35:30;;;;;;;2.87;1.37;;;24.60;32.40;;;;;;936017;148;27327;-78
2023/04/26 09:37:57;;;;;;;4.87;1.72;;;24.40;32.80;;;;;;933653;149;27338;-78
2023/04/26 09:40:23;;;;;;;4.70;1.67;;;24.30;33.10;;;;;;937745;149;27432;-79
2023/04/26 09:43:01;;;;;;;1.60;1.40;;;24.30;33.30;;;;;;923962;150;27345;-79
2023/04/26 09:45:28;;;;;;;2.92;1.40;;;24.30;33.40;;;;;;921855;150;27386;-78
2023/04/26 09:47:55;;;;;;;1.87;1.37;;;24.30;33.40;;;;;;924982;150;27314;-79
2023/04/26 09:50:27;;;;;;;3.75;1.50;;;24.30;33.40;;;;;;926526;150;27485;-78
2023/04/26 09:52:54;;;;;;;2.27;1.70;;;24.30;33.40;;;;;;923005;150;27433;-78
2023/04/26 09:55:27;;;;;;;2.08;1.70;;;24.30;33.20;;;;;;936377;149;27299;-78
2023/04/26 09:57:53;;;;;;;2.42;1.50;;;24.20;33.00;;;;;;939317;150;27272;-78
2023/04/26 10:00:20;;;;;;;1.95;1.25;;;24.10;33.10;;;;;;939607;150;27419;-78
2023/04/26 10:02:46;;;;;;;6.17;1.62;;;24.00;33.00;;;;;;935952;149;27327;-78
2023/04/26 10:05:12;;;;;;;1.95;1.40;;;23.90;32.90;;;;;;940259;150;27439;-78
2023/04/26 10:07:40;;;;;;;2.62;1.47;;;23.70;33.00;;;;;;925972;151;27264;-78
2023/04/26 10:10:06;;;;;;;3.00;1.50;;;23.60;33.10;;;;;;936733;148;27407;-78
2023/04/26 10:12:32;;;;;;;2.60;1.45;;;23.50;33.20;;;;;;937282;148;27323;-79
2023/04/26 10:14:59;;;;;;;2.83;1.37;;;23.40;33.30;;;;;;937147;148;27316;-78
2023/04/26 10:17:25;;;;;;;1.47;1.30;;;23.30;33.40;;;;;;933389;149;27814;-79
2023/04/26 10:19:52;;;;;;;1.47;1.27;;;23.20;33.30;;;;;;940105;147;27454;-79
2023/04/26 10:22:27;;;;;;;1.92;1.27;;;23.20;33.10;;;;;;936570;148;27350;-80
2023/04/26 10:24:54;;;;;;;2.70;1.70;;;23.10;33.80;;;;;;937297;147;27604;-80
2023/04/26 10:27:45;;;;;;;3.55;1.55;;;23.00;33.40;;;;;;920936;150;27351;-80
2023/04/26 10:30:12;;;;;;;1.37;1.20;;;22.90;33.50;;;;;;922225;150;27331;-80
2023/04/26 10:32:56;;;;;;;3.08;1.70;;;22.90;33.60;;;;;;912531;151;27492;-80
2023/04/26 10:35:23;;;;;;;3.00;1.60;;;22.80;33.60;;;;;;930660;149;27476;-80
2023/04/26 10:38:01;;;;;;;1.70;1.32;;;22.70;33.60;;;;;;932094;149;27362;-80
2023/04/26 10:40:28;;;;;;;3.17;1.75;;;22.70;33.50;;;;;;925726;151;27357;-80
2023/04/26 10:43:09;;;;;;;1.87;1.40;;;22.60;33.60;;;;;;927883;149;27498;-81
2023/04/26 10:45:36;;;;;;;3.27;1.70;;;22.60;33.60;;;;;;936522;150;27405;-80
2023/04/26 10:48:17;;;;;;;2.08;1.87;;;22.50;34.00;;;;;;929905;149;27323;-80
2023/04/26 10:51:00;;;;;;;3.90;1.70;;;22.30;33.10;;;;;;937907;150;27403;-80
2023/04/26 10:53:26;;;;;;;3.20;1.40;;;22.00;33.20;;;;;;937466;149;27403;-81
2023/04/26 10:55:53;;;;;;;2.37;1.35;;;21.80;33.30;;;;;;942222;148;27439;-81
2023/04/26 10:58:26;;;;;;;2.50;1.35;;;21.50;33.50;;;;;;937184;148;27316;-81
2023/04/26 11:01:22;;;;;;;2.12;1.50;;;21.30;33.60;;;;;;936814;148;27325;-81
2023/04/26 11:03:58;;;;;;;3.80;1.32;;;21.10;33.80;;;;;;938581;149;27398;-81
2023/04/26 11:06:25;;;;;;;2.90;1.32;;;20.80;34.00;;;;;;939456;149;27450;-81
2023/04/26 11:08:51;;;;;;;1.82;1.35;;;20.60;34.30;;;;;;919849;150;27417;-81
2023/04/26 11:11:21;;;;;;;3.10;1.47;;;20.50;34.50;;;;;;935828;149;27384;-81
2023/04/26 11:13:47;;;;;;;2.55;1.50;;;20.40;34.60;;;;;;934679;149;27411;-81
2023/04/26 11:16:13;;;;;;;2.55;1.30;;;20.30;34.70;;;;;;938840;148;27311;-81
2023/04/26 11:18:42;;;;;;;3.35;1.80;;;20.30;34.80;;;;;;937006;148;27334;-81
2023/04/26 11:21:09;;;;;;;2.27;1.60;;;20.30;35.00;;;;;;937945;149;27299;-81
2023/04/26 11:23:36;;;;;;;2.95;1.45;;;20.30;35.20;;;;;;917252;152;27334;-81
2023/04/26 11:26:02;;;;;;;2.77;1.70;;;20.40;35.40;;;;;;935726;148;27386;-81
2023/04/26 11:28:31;;;;;;;3.58;1.72;;;20.50;35.50;;;;;;921939;150;27364;-80
2023/04/26 11:30:58;;;;;;;3.95;1.80;;;20.60;35.60;;;;;;918422;150;27352;-81
2023/04/26 11:33:24;;;;;;;3.98;1.70;;;20.70;35.70;;;;;;920952;150;27350;-81
2023/04/26 11:35:51;;;;;;;2.05;1.52;;;20.80;35.60;;;;;;926588;150;27653;-80
2023/04/26 11:38:18;;;;;;;2.98;1.82;;;21.00;35.50;;;;;;936308;149;27452;-80
2023/04/26 11:40:44;;;;;;;3.77;1.72;;;21.10;35.40;;;;;;935732;149;27739;-80
2023/04/26 11:43:12;;;;;;;2.70;1.80;;;21.20;35.30;;;;;;940374;148;27384;-81
2023/04/26 11:45:37;;;;;;;2.12;1.45;;;21.30;35.20;;;;;;926770;150;27317;-81
2023/04/26 11:48:04;;;;;;;3.83;1.85;;;21.40;35.00;;;;;;933432;149;27362;-80
2023/04/26 11:50:36;;;;;;;3.80;1.98;;;21.40;34.70;;;;;;939764;150;27435;-80
2023/04/26 11:53:02;;;;;;;1.72;1.50;;;21.50;34.80;;;;;;936848;149;27327;-81
2023/04/26 11:55:30;;;;;;;3.90;1.92;;;21.50;34.80;;;;;;931427;149;27351;-81
2023/04/26 11:57:56;;;;;;;1.62;1.20;;;21.60;34.70;;;;;;934924;147;27403;-81
2023/04/26 12:00:23;;;;;;;2.87;1.70;;;21.60;34.60;;;;;;923516;150;27606;-80
2023/04/26 12:02:49;;;;;;;3.17;1.50;;;21.60;34.60;;;;;;933603;149;27322;-80
2023/04/26 12:05:25;;;;;;;2.55;1.75;;;21.60;34.70;;;;;;930045;149;27388;-81
2023/04/26 12:07:57;;;;;;;2.42;1.95;;;21.60;34.60;;;;;;940397;147;27454;-80
2023/04/26 12:10:27;;;;;;;1.92;1.50;;;21.60;34.40;;;;;;935884;148;27387;-81
2023/04/26 12:12:55;;;;;;;2.95;1.50;;;21.50;34.20;;;;;;943935;148;27340;-81
2023/04/26 12:15:22;;;;;;;2.52;1.50;;;21.40;34.10;;;;;;938312;148;27424;-81
2023/04/26 12:17:52;;;;;;;3.50;2.00;;;21.30;34.10;;;;;;926465;150;27472;-81
2023/04/26 12:20:18;;;;;;;1.85;1.57;;;21.10;34.20;;;;;;928742;150;27374;-81
2023/04/26 12:22:57;;;;;;;3.00;1.62;;;20.90;34.20;;;;;;933660;149;27337;-82
2023/04/26 12:25:23;;;;;;;1.85;1.47;;;20.70;34.20;;;;;;937429;149;27448;-81
2023/04/26 12:27:50;;;;;;;2.50;1.85;;;20.50;33.80;;;;;;939986;150;27350;-81
2023/04/26 12:30:17;;;;;;;2.87;1.72;;;20.30;34.60;;;;;;932121;149;27451;-81
2023/04/26 12:32:43;;;;;;;2.02;1.55;;;20.10;34.90;;;;;;937471;148;27319;-81
2023/04/26 12:35:10;;;;;;;2.87;1.90;;;20.00;35.10;;;;;;919532;150;27379;-81
2023/04/26 12:37:36;;;;;;;3.58;1.37;;;19.90;35.20;;;;;;934915;149;27392;-81
2023/04/26 12:40:03;;;;;;;2.50;1.57;;;19.80;35.20;;;;;;932937;149;27369;-81
2023/04/26 12:42:30;;;;;;;2.30;1.50;;;19.70;35.50;;;;;;937837;150;27365;-81
2023/04/26 12:44:56;;;;;;;2.75;1.57;;;19.60;35.60;;;;;;940714;148;27315;-81
2023/04/26 12:47:23;;;;;;;3.15;1.50;;;19.60;35.60;;;;;;925800;150;27390;-81
2023/04/26 12:49:49;;;;;;;4.67;1.65;;;19.50;35.70;;;;;;937885;150;27443;-81